Time;durP1;ratioP1;P1;durP2;ratioP2;P2;SDS_P1;SDS_P2;PMS_P1;PMS_P2;Temp;Humidity;BMP_temperature;BMP_pressure;BME280_temperature;BME280_humidity;BME280_pressure;Samples;Min_cycle;Max_cycle;Signal;HPM_P1;HPM_P2
2021/08/12 00:00:22;;;;;;;17.52;6.90;;;;;;;14.24;75.34;100218.94;5108370;28;20485;-51
2021/08/12 00:03:08;;;;;;;18.40;5.88;;;;;;;14.19;75.33;100215.56;5076256;28;20151;-51
2021/08/12 00:05:34;;;;;;;13.20;6.20;;;;;;;14.16;75.67;100219.16;5075896;28;20131;-51
2021/08/12 00:08:00;;;;;;;16.02;7.65;;;;;;;14.12;75.89;100216.69;5075676;28;20060;-51
2021/08/12 00:10:26;;;;;;;19.80;7.85;;;;;;;14.08;76.04;100212.44;5075899;28;20044;-50
2021/08/12 00:12:51;;;;;;;16.98;7.90;;;;;;;14.05;76.08;100218.66;5075654;28;20410;-51
2021/08/12 00:15:17;;;;;;;15.77;6.85;;;;;;;14.03;76.03;100218.69;5075576;28;20127;-50
2021/08/12 00:17:43;;;;;;;9.95;5.65;;;;;;;14.02;76.23;100230.16;5075571;28;20060;-51
2021/08/12 00:20:09;;;;;;;11.50;5.00;;;;;;;14.02;75.90;100237.19;5075827;28;20045;-50
2021/08/12 00:22:37;;;;;;;9.35;5.00;;;;;;;13.98;76.35;100228.53;5075561;28;20040;-51
2021/08/12 00:25:03;;;;;;;9.32;4.15;;;;;;;13.95;76.10;100233.91;5075721;28;20044;-51
2021/08/12 00:27:29;;;;;;;9.65;4.53;;;;;;;13.91;76.58;100234.03;5108447;28;20479;-50
2021/08/12 00:29:55;;;;;;;8.45;4.80;;;;;;;13.91;76.04;100236.66;5091982;28;20469;-50
2021/08/12 00:32:21;;;;;;;8.15;4.78;;;;;;;13.90;76.08;100240.22;5078687;28;20070;-50
2021/08/12 00:34:47;;;;;;;9.50;5.30;;;;;;;13.85;76.77;100244.78;5079223;28;20056;-51
2021/08/12 00:37:13;;;;;;;11.82;5.55;;;;;;;13.84;76.54;100245.69;5095137;28;20044;-51
2021/08/12 00:39:39;;;;;;;14.50;4.85;;;;;;;13.82;76.60;100234.34;5079403;28;20048;-51
2021/08/12 00:42:08;;;;;;;12.50;5.55;;;;;;;13.79;76.34;100236.16;5078176;28;20174;-50
2021/08/12 00:44:35;;;;;;;10.30;5.20;;;;;;;13.77;76.47;100245.00;5078504;28;20097;-51
2021/08/12 00:47:01;;;;;;;10.45;5.15;;;;;;;13.75;76.66;100244.22;5078378;28;20139;-51
2021/08/12 00:49:30;;;;;;;8.23;4.28;;;;;;;13.73;76.88;100244.25;5112176;28;20059;-51
2021/08/12 00:51:56;;;;;;;8.02;4.38;;;;;;;13.72;77.14;100239.03;5095404;28;20139;-51
2021/08/12 00:54:23;;;;;;;8.93;4.20;;;;;;;13.72;76.56;100249.56;5095115;28;20044;-51
2021/08/12 00:56:49;;;;;;;7.25;4.18;;;;;;;13.70;76.30;100249.59;5095053;28;20052;-51
2021/08/12 00:59:15;;;;;;;6.80;4.03;;;;;;;13.69;77.28;100250.53;5077762;28;20347;-51
2021/08/12 01:01:42;;;;;;;10.60;4.80;;;;;;;13.67;77.01;100254.09;5078491;28;20044;-51
2021/08/12 01:04:09;;;;;;;6.70;4.38;;;;;;;13.65;77.21;100254.16;5077671;28;20151;-51
2021/08/12 01:07:09;;;;;;;5.18;3.70;;;;;;;13.64;76.59;100241.91;5094588;28;20098;-50
2021/08/12 01:09:47;;;;;;;7.95;4.68;;;;;;;13.59;77.04;100249.09;5080342;28;20048;-50
2021/08/12 01:12:42;;;;;;;7.53;4.10;;;;;;;13.53;77.86;100251.91;5078034;28;20057;-50
2021/08/12 01:15:09;;;;;;;8.43;4.40;;;;;;;13.50;77.90;100247.59;5024812;28;20092;-51
2021/08/12 01:17:58;;;;;;;7.30;5.38;;;;;;;13.47;78.09;100245.03;5061307;28;20059;-51
2021/08/12 01:20:42;;;;;;;11.82;5.28;;;;;;;13.46;78.36;100253.84;5062621;28;20121;-51
2021/08/12 01:23:11;;;;;;;10.77;5.50;;;;;;;13.46;78.42;100263.53;5078408;28;20044;-51
2021/08/12 01:25:37;;;;;;;12.32;6.10;;;;;;;13.44;78.63;100266.19;5078502;28;20048;-51
2021/08/12 01:28:06;;;;;;;17.52;7.60;;;;;;;13.46;78.72;100259.13;5044564;28;20048;-50
2021/08/12 01:30:39;;;;;;;12.45;6.25;;;;;;;13.47;77.93;100259.97;5077961;28;20052;-51
2021/08/12 01:33:11;;;;;;;17.73;7.57;;;;;;;13.45;78.04;100261.78;5061661;28;20045;-51
2021/08/12 01:35:37;;;;;;;15.40;6.32;;;;;;;13.42;77.79;100256.59;5077284;28;20106;-50
2021/08/12 01:38:13;;;;;;;11.35;6.00;;;;;;;13.42;77.91;100260.13;5060826;28;20044;-50
2021/08/12 01:40:39;;;;;;;9.90;5.35;;;;;;;13.36;78.30;100257.66;5060901;28;20044;-50
2021/08/12 01:43:17;;;;;;;7.78;4.38;;;;;;;13.36;78.85;100254.16;5077953;28;20037;-51
2021/08/12 01:45:49;;;;;;;7.65;4.72;;;;;;;13.36;78.15;100251.53;5044682;28;20108;-51
2021/08/12 01:48:16;;;;;;;5.18;4.32;;;;;;;13.33;77.79;100266.50;5077319;28;20116;-51
2021/08/12 01:50:42;;;;;;;5.70;4.03;;;;;;;13.27;77.80;100258.78;5060606;28;20457;-51
2021/08/12 01:53:08;;;;;;;5.97;3.92;;;;;;;13.30;77.79;100265.75;5077005;28;20086;-51
2021/08/12 01:55:34;;;;;;;6.72;4.57;;;;;;;13.29;77.47;100261.34;5060776;28;20052;-51
2021/08/12 01:58:00;;;;;;;9.32;5.95;;;;;;;13.21;77.52;100256.31;5060208;28;20055;-50
2021/08/12 02:00:28;;;;;;;14.43;6.70;;;;;;;13.24;78.36;100264.13;5076554;28;20131;-50
2021/08/12 02:02:54;;;;;;;13.75;6.22;;;;;;;13.22;77.95;100262.41;5093496;28;20067;-50
2021/08/12 02:05:20;;;;;;;7.85;5.35;;;;;;;13.20;77.38;100261.63;5060281;28;20036;-51
2021/08/12 02:07:46;;;;;;;8.73;5.45;;;;;;;13.19;78.65;100259.88;5093362;28;20114;-51
2021/08/12 02:10:13;;;;;;;10.98;5.20;;;;;;;13.18;78.96;100258.16;5076881;28;20048;-51
2021/08/12 02:12:40;;;;;;;7.35;5.32;;;;;;;13.17;78.57;100254.66;5076805;28;20132;-51
2021/08/12 02:15:08;;;;;;;11.10;5.45;;;;;;;13.17;78.55;100269.59;5076493;28;20350;-50
2021/08/12 02:17:34;;;;;;;16.45;7.00;;;;;;;13.15;78.44;100266.13;5076407;28;20045;-51
2021/08/12 02:20:04;;;;;;;20.23;7.93;;;;;;;13.15;78.21;100267.00;5093254;28;20055;-51
2021/08/12 02:22:32;;;;;;;16.08;6.50;;;;;;;13.12;78.55;100255.69;5093152;28;20052;-50
2021/08/12 02:25:04;;;;;;;16.42;5.90;;;;;;;13.11;78.33;100265.38;5060093;28;20071;-51
2021/08/12 02:27:30;;;;;;;8.20;4.15;;;;;;;13.08;78.62;100253.16;5076870;28;20047;-50
2021/08/12 02:29:56;;;;;;;8.80;4.50;;;;;;;13.05;77.72;100263.75;5076482;28;20048;-51
2021/08/12 02:32:25;;;;;;;9.35;4.30;;;;;;;13.04;78.04;100269.06;5059798;28;20143;-51
2021/08/12 02:34:51;;;;;;;10.15;4.00;;;;;;;12.99;78.65;100271.81;5077163;28;20083;-51
2021/08/12 02:37:18;;;;;;;6.68;4.75;;;;;;;12.94;78.97;100264.97;5075967;28;20056;-51
2021/08/12 02:39:44;;;;;;;6.00;4.07;;;;;;;12.95;79.08;100275.44;5043243;28;20068;-51
2021/08/12 02:42:10;;;;;;;9.82;4.20;;;;;;;12.95;78.67;100275.44;5093036;28;20048;-50
2021/08/12 02:44:37;;;;;;;5.05;4.22;;;;;;;12.89;78.35;100258.97;5059242;28;20044;-51
2021/08/12 02:47:03;;;;;;;5.78;4.03;;;;;;;12.91;78.97;100259.81;5059628;28;20094;-50
2021/08/12 02:49:30;;;;;;;6.85;4.32;;;;;;;12.85;79.45;100264.31;5059184;28;20048;-51
2021/08/12 02:51:58;;;;;;;6.40;4.20;;;;;;;12.83;79.53;100267.88;5042788;28;20052;-51
2021/08/12 02:54:24;;;;;;;5.32;4.65;;;;;;;12.82;79.51;100268.78;5075448;28;20048;-51
2021/08/12 02:56:49;;;;;;;5.70;4.47;;;;;;;12.77;79.54;100261.03;5075664;28;20054;-51
2021/08/12 02:59:15;;;;;;;7.57;4.57;;;;;;;12.79;78.82;100266.25;5059063;28;20049;-51
2021/08/12 03:01:42;;;;;;;8.20;4.47;;;;;;;12.74;78.83;100271.63;5075970;28;20052;-51
2021/08/12 03:04:07;;;;;;;5.75;4.28;;;;;;;12.71;78.90;100271.72;5075482;28;20110;-50
2021/08/12 03:06:33;;;;;;;8.45;4.55;;;;;;;12.69;79.20;100259.50;5075506;28;20044;-50
2021/08/12 03:08:59;;;;;;;6.18;4.45;;;;;;;12.69;79.32;100265.63;5058928;28;20044;-51
2021/08/12 03:11:26;;;;;;;9.27;5.53;;;;;;;12.63;79.09;100264.00;5075687;28;20052;-50
2021/08/12 03:13:53;;;;;;;6.93;5.28;;;;;;;12.66;79.33;100276.22;5075982;28;20106;-50
2021/08/12 03:16:21;;;;;;;5.40;4.43;;;;;;;12.66;79.48;100276.22;5043149;28;20044;-50
2021/08/12 03:18:47;;;;;;;9.32;5.13;;;;;;;12.63;79.68;100279.78;5059274;28;20060;-51
2021/08/12 03:21:14;;;;;;;6.70;4.57;;;;;;;12.63;79.70;100278.94;5109044;28;20508;-51
2021/08/12 03:23:40;;;;;;;7.28;4.55;;;;;;;12.61;79.97;100276.34;5075217;28;20503;-50
2021/08/12 03:26:06;;;;;;;5.82;4.20;;;;;;;12.61;80.42;100284.22;5075486;28;20048;-51
2021/08/12 03:28:32;;;;;;;10.00;4.60;;;;;;;12.61;80.12;100286.88;5076352;28;20059;-51
2021/08/12 03:30:59;;;;;;;5.32;3.92;;;;;;;12.61;79.78;100292.13;5092271;28;20048;-51
2021/08/12 03:33:25;;;;;;;6.95;4.60;;;;;;;12.59;80.14;100280.78;5075175;28;20064;-51
2021/08/12 03:35:51;;;;;;;6.47;4.60;;;;;;;12.58;80.09;100281.69;5075155;28;20343;-50
2021/08/12 03:38:18;;;;;;;9.30;4.35;;;;;;;12.58;79.74;100292.19;5091836;28;20132;-51
2021/08/12 03:40:44;;;;;;;7.65;5.10;;;;;;;12.58;79.96;100286.94;5075337;28;20052;-51
2021/08/12 03:43:10;;;;;;;5.90;4.60;;;;;;;12.60;80.04;100285.13;5091882;28;20044;-50
2021/08/12 03:45:36;;;;;;;8.40;5.53;;;;;;;12.60;79.98;100289.50;5076053;28;20044;-50
2021/08/12 03:48:03;;;;;;;6.97;4.80;;;;;;;12.60;79.81;100290.38;5092126;28;20428;-50
2021/08/12 03:50:29;;;;;;;9.35;5.05;;;;;;;12.62;79.73;100287.72;5109786;28;20114;-50
2021/08/12 03:52:57;;;;;;;8.32;5.05;;;;;;;12.62;79.81;100293.84;5091781;28;20040;-50
2021/08/12 03:55:23;;;;;;;9.27;5.13;;;;;;;12.65;79.95;100294.66;5074952;28;20128;-50
2021/08/12 03:57:49;;;;;;;9.90;5.03;;;;;;;12.66;80.15;100299.88;5091974;28;20094;-50
2021/08/12 04:00:16;;;;;;;7.10;5.30;;;;;;;12.67;79.98;100292.84;5091607;28;20135;-50
2021/08/12 04:02:47;;;;;;;5.55;3.97;;;;;;;12.69;80.33;100291.06;5108931;28;20075;-51
2021/08/12 04:05:13;;;;;;;6.32;4.72;;;;;;;12.69;80.46;100291.91;5094679;28;20075;-51
2021/08/12 04:07:39;;;;;;;8.38;5.00;;;;;;;12.72;80.34;100297.09;5078839;28;20055;-50
2021/08/12 04:10:05;;;;;;;9.93;4.75;;;;;;;12.75;79.96;100294.38;5112709;28;20052;-51
2021/08/12 04:12:31;;;;;;;8.30;5.15;;;;;;;12.76;80.60;100301.34;5095909;28;20112;-50
2021/08/12 04:14:57;;;;;;;6.88;4.63;;;;;;;12.78;80.35;100302.19;5095670;28;20056;-51
2021/08/12 04:17:23;;;;;;;9.60;7.03;;;;;;;12.82;80.40;100298.56;5079845;28;20393;-51
2021/08/12 04:19:49;;;;;;;9.95;5.68;;;;;;;12.86;80.57;100304.59;5095751;28;20101;-51
2021/08/12 04:22:15;;;;;;;10.10;5.50;;;;;;;12.89;80.72;100307.16;5078918;28;20430;-50
2021/08/12 04:24:41;;;;;;;17.35;8.18;;;;;;;12.92;80.62;100304.44;5079646;28;20048;-51
2021/08/12 04:27:07;;;;;;;30.08;14.57;;;;;;;12.96;80.81;100307.84;5078848;28;20382;-51
2021/08/12 04:29:32;;;;;;;31.98;14.45;;;;;;;13.01;80.89;100304.19;5079303;28;20051;-51
2021/08/12 04:31:58;;;;;;;27.13;13.43;;;;;;;13.12;80.67;100309.16;5079512;28;20086;-51
2021/08/12 04:34:24;;;;;;;21.58;10.55;;;;;;;13.38;81.41;100312.84;5079219;28;20465;-50
2021/08/12 04:36:50;;;;;;;18.55;9.48;;;;;;;13.59;80.98;100304.34;5079166;28;20048;-51
2021/08/12 04:39:16;;;;;;;11.57;7.07;;;;;;;13.80;81.01;100306.31;5095465;28;20067;-50
2021/08/12 04:41:42;;;;;;;10.23;6.70;;;;;;;14.01;80.82;100311.88;5079362;28;20048;-51
2021/08/12 04:44:08;;;;;;;9.68;5.78;;;;;;;14.15;80.81;100304.38;5095306;28;20048;-51
2021/08/12 04:46:34;;;;;;;6.43;5.55;;;;;;;14.21;80.89;100304.19;5078104;28;20370;-50
2021/08/12 04:49:02;;;;;;;7.78;5.63;;;;;;;14.26;80.61;100311.94;5095009;28;20048;-51
2021/08/12 04:51:28;;;;;;;6.97;5.93;;;;;;;14.35;80.43;100305.50;5078945;28;20434;-50
2021/08/12 04:53:54;;;;;;;7.53;4.85;;;;;;;14.46;80.39;100300.72;5094859;28;20049;-51
2021/08/12 04:56:20;;;;;;;9.30;5.95;;;;;;;14.65;80.37;100314.19;5079113;28;20049;-51
2021/08/12 04:58:46;;;;;;;7.95;5.63;;;;;;;14.94;80.00;100316.69;5094859;28;20094;-51
2021/08/12 05:01:13;;;;;;;8.65;6.38;;;;;;;15.40;80.46;100315.06;5094626;28;20113;-51
2021/08/12 05:03:39;;;;;;;9.93;5.60;;;;;;;15.96;79.61;100316.50;5094659;28;20105;-51
2021/08/12 05:06:05;;;;;;;7.28;5.93;;;;;;;16.58;78.74;100321.00;5078847;28;20056;-51
2021/08/12 05:08:31;;;;;;;6.95;5.40;;;;;;;17.12;76.95;100321.38;5077938;28;20504;-51
2021/08/12 05:10:57;;;;;;;6.13;4.13;;;;;;;17.69;75.58;100324.13;5094585;28;20052;-50
2021/08/12 05:13:23;;;;;;;6.32;4.63;;;;;;;18.22;74.11;100318.94;5077953;28;20049;-51
2021/08/12 05:15:49;;;;;;;6.40;4.55;;;;;;;18.76;72.88;100319.00;5078122;28;20055;-51
2021/08/12 05:18:15;;;;;;;6.53;4.22;;;;;;;19.26;71.91;100320.78;5094608;28;20048;-51
2021/08/12 05:20:41;;;;;;;5.32;4.10;;;;;;;19.73;70.08;100319.22;5077549;28;20325;-51
2021/08/12 05:23:07;;;;;;;6.68;4.28;;;;;;;20.18;68.37;100323.78;5077449;28;20048;-51
2021/08/12 05:25:33;;;;;;;6.97;4.20;;;;;;;20.62;66.75;100316.88;5077356;28;20451;-51
2021/08/12 05:27:58;;;;;;;5.88;4.80;;;;;;;21.12;65.85;100328.94;5094631;28;20051;-51
2021/08/12 05:30:25;;;;;;;7.70;4.13;;;;;;;21.56;63.77;100320.06;5094525;28;20048;-52
2021/08/12 05:32:51;;;;;;;7.10;3.95;;;;;;;21.99;63.58;100322.66;5094431;28;20339;-51
2021/08/12 05:35:18;;;;;;;5.25;4.30;;;;;;;22.41;62.28;100327.06;5078132;28;20055;-51
2021/08/12 05:37:43;;;;;;;5.45;4.68;;;;;;;22.63;59.95;100327.34;5077808;28;20044;-51
2021/08/12 05:40:10;;;;;;;7.32;4.53;;;;;;;22.82;58.78;100326.97;5094127;28;20048;-51
2021/08/12 05:42:36;;;;;;;5.05;4.43;;;;;;;23.07;58.03;100328.84;5111150;28;20078;-51
2021/08/12 05:45:02;;;;;;;5.15;4.20;;;;;;;23.36;57.98;100331.28;5094099;28;20056;-50
2021/08/12 05:47:28;;;;;;;7.13;4.35;;;;;;;23.74;57.66;100339.31;5077086;28;20039;-50
2021/08/12 05:49:54;;;;;;;5.95;4.22;;;;;;;24.09;56.54;100343.94;5077253;28;20056;-51
2021/08/12 05:52:21;;;;;;;7.55;4.88;;;;;;;24.43;56.42;100342.31;5093763;28;20052;-51
2021/08/12 05:54:47;;;;;;;8.48;5.63;;;;;;;24.65;55.42;100343.41;5093996;28;20055;-50
2021/08/12 05:57:13;;;;;;;7.90;4.78;;;;;;;24.82;53.71;100339.44;5094003;28;20067;-51
2021/08/12 05:59:39;;;;;;;8.18;4.45;;;;;;;25.00;54.07;100342.56;5077693;28;20056;-51
2021/08/12 06:02:05;;;;;;;6.55;5.25;;;;;;;25.29;53.60;100345.69;5094151;28;20044;-51
2021/08/12 06:04:37;;;;;;;7.68;6.68;;;;;;;25.54;52.57;100344.59;5076971;28;20060;-51
2021/08/12 06:07:07;;;;;;;6.55;5.18;;;;;;;25.59;52.55;100342.41;5110337;28;20036;-50
2021/08/12 06:09:34;;;;;;;8.02;6.25;;;;;;;25.77;51.42;100348.13;5078558;28;20056;-51
2021/08/12 06:11:59;;;;;;;7.70;5.93;;;;;;;26.00;50.98;100341.81;5093679;28;20056;-51
2021/08/12 06:14:25;;;;;;;5.60;5.05;;;;;;;26.08;50.85;100341.16;5077659;28;20044;-51
2021/08/12 06:16:51;;;;;;;7.25;4.88;;;;;;;26.17;50.60;100342.25;5093274;28;20059;-51
2021/08/12 06:19:17;;;;;;;7.60;4.85;;;;;;;26.41;50.56;100331.31;5093528;28;20059;-50
2021/08/12 06:21:43;;;;;;;5.68;4.38;;;;;;;26.70;49.68;100342.34;5093198;28;20044;-50
2021/08/12 06:24:14;;;;;;;6.50;4.50;;;;;;;26.90;49.63;100338.81;5110143;28;20459;-51
2021/08/12 06:26:43;;;;;;;8.30;4.40;;;;;;;27.14;49.01;100337.75;5109963;28;20512;-50
2021/08/12 06:29:11;;;;;;;4.60;3.72;;;;;;;27.38;48.20;100332.06;5092221;28;20121;-51
2021/08/12 06:31:38;;;;;;;6.32;4.07;;;;;;;27.54;47.64;100336.97;5076173;28;20048;-51
2021/08/12 06:34:04;;;;;;;6.75;4.20;;;;;;;27.71;47.90;100339.00;5076366;28;20048;-50
2021/08/12 06:36:34;;;;;;;5.45;3.63;;;;;;;27.85;46.55;100340.50;5093173;28;20098;-51
2021/08/12 06:39:00;;;;;;;7.75;3.63;;;;;;;28.09;46.10;100337.47;5076841;28;20048;-51
2021/08/12 06:41:27;;;;;;;7.45;4.22;;;;;;;28.10;45.54;100341.84;5077092;28;20114;-51
2021/08/12 06:43:56;;;;;;;4.30;3.58;;;;;;;28.21;45.11;100325.59;5109709;28;20037;-51
2021/08/12 06:46:22;;;;;;;5.07;3.08;;;;;;;28.41;45.38;100338.13;5076642;28;20041;-51
2021/08/12 06:48:48;;;;;;;6.55;3.63;;;;;;;28.59;45.07;100337.41;5076696;28;20048;-51
2021/08/12 06:51:14;;;;;;;4.40;3.35;;;;;;;28.64;44.62;100336.00;5076644;28;20454;-51
2021/08/12 06:53:40;;;;;;;3.70;3.25;;;;;;;28.81;44.22;100347.06;5077428;28;20044;-51
2021/08/12 06:56:08;;;;;;;4.03;3.38;;;;;;;29.00;44.67;100338.09;5092618;28;20040;-51
2021/08/12 06:58:40;;;;;;;5.47;3.78;;;;;;;29.04;43.66;100343.06;5115176;27;20897;-51
2021/08/12 07:01:06;;;;;;;4.38;3.20;;;;;;;29.08;43.22;100344.47;5113690;28;20048;-50
2021/08/12 07:03:32;;;;;;;4.88;3.47;;;;;;;29.19;42.48;100346.19;5113904;28;20058;-50
2021/08/12 07:05:59;;;;;;;4.13;2.50;;;;;;;29.18;42.52;100344.47;5114127;28;20043;-51
2021/08/12 07:08:25;;;;;;;3.88;2.55;;;;;;;29.36;42.41;100352.66;5113005;28;20048;-51
2021/08/12 07:10:51;;;;;;;4.65;3.47;;;;;;;29.24;42.11;100341.19;5113607;28;20437;-51
2021/08/12 07:13:17;;;;;;;3.97;2.50;;;;;;;29.49;41.63;100346.94;5096340;28;20071;-51
2021/08/12 07:15:44;;;;;;;3.45;2.22;;;;;;;29.66;41.51;100340.78;5113096;28;20074;-51
2021/08/12 07:18:10;;;;;;;3.20;2.45;;;;;;;29.65;39.91;100351.75;5113480;28;20421;-50
2021/08/12 07:20:37;;;;;;;5.18;2.03;;;;;;;29.83;39.14;100346.41;5113005;28;20048;-51
2021/08/12 07:23:03;;;;;;;2.30;1.73;;;;;;;30.00;39.25;100340.22;5113323;28;20074;-51
2021/08/12 07:25:29;;;;;;;4.53;2.03;;;;;;;30.07;38.16;100345.84;5112959;28;20415;-51
2021/08/12 07:27:55;;;;;;;2.08;1.75;;;;;;;29.97;38.21;100351.31;5112635;28;20055;-51
2021/08/12 07:30:21;;;;;;;3.30;2.05;;;;;;;29.93;38.94;100356.16;5112513;28;20085;-51
2021/08/12 07:32:47;;;;;;;2.53;1.45;;;;;;;29.89;37.53;100362.84;5113318;28;20052;-51
2021/08/12 07:35:13;;;;;;;2.03;1.58;;;;;;;30.18;37.61;100353.72;5113267;28;20056;-51
2021/08/12 07:37:40;;;;;;;3.05;1.83;;;;;;;30.10;36.81;100361.75;5112631;28;20051;-51
2021/08/12 07:40:06;;;;;;;3.00;1.70;;;;;;;30.10;36.70;100361.75;5113205;28;20039;-51
2021/08/12 07:42:33;;;;;;;2.97;1.80;;;;;;;30.22;37.70;100356.00;5112299;28;20058;-51
2021/08/12 07:45:01;;;;;;;3.25;2.00;;;;;;;30.35;37.76;100360.19;5112316;28;20036;-51
2021/08/12 07:47:27;;;;;;;2.80;1.52;;;;;;;30.37;36.90;100363.59;5129935;27;20101;-51
2021/08/12 07:49:53;;;;;;;2.38;1.40;;;;;;;30.32;35.44;100361.34;5112477;28;20052;-51
2021/08/12 07:52:19;;;;;;;2.67;1.55;;;;;;;30.44;34.96;100362.81;5113303;28;20129;-51
2021/08/12 07:54:48;;;;;;;2.30;1.73;;;;;;;30.40;36.36;100360.59;5113567;28;20046;-51
2021/08/12 07:57:14;;;;;;;3.13;2.08;;;;;;;30.41;37.12;100357.72;5112807;28;20062;-51
2021/08/12 07:59:40;;;;;;;2.15;1.40;;;;;;;30.49;37.05;100362.38;5112832;28;20113;-51
2021/08/12 08:02:06;;;;;;;1.92;1.42;;;;;;;30.44;35.94;100361.97;5113137;28;20052;-51
2021/08/12 08:04:31;;;;;;;2.30;1.85;;;;;;;30.37;33.63;100360.91;5113079;28;20032;-51
2021/08/12 08:06:59;;;;;;;4.28;1.98;;;;;;;30.15;33.45;100373.78;5112974;28;20346;-51
2021/08/12 08:09:25;;;;;;;4.63;1.70;;;;;;;30.11;36.90;100372.41;5102911;28;20044;-51
2021/08/12 08:11:51;;;;;;;2.10;1.70;;;;;;;30.10;34.35;100373.41;5099084;28;20125;-51
2021/08/12 08:14:17;;;;;;;2.35;1.50;;;;;;;29.97;35.40;100370.22;5099816;28;20047;-51
2021/08/12 08:16:43;;;;;;;4.78;1.63;;;;;;;29.95;35.90;100372.19;5099137;28;20056;-51
2021/08/12 08:19:09;;;;;;;2.72;1.60;;;;;;;30.05;36.66;100370.28;5099191;28;20051;-51
2021/08/12 08:21:39;;;;;;;3.72;1.95;;;;;;;30.08;35.86;100366.44;5099121;28;20048;-51
2021/08/12 08:24:06;;;;;;;3.17;2.15;;;;;;;30.16;34.44;100358.44;5099121;28;20062;-51
2021/08/12 08:26:31;;;;;;;3.10;2.03;;;;;;;30.12;35.30;100367.84;5099344;28;20040;-51
2021/08/12 08:28:58;;;;;;;1.88;1.30;;;;;;;30.05;35.67;100367.59;5098768;28;20035;-51
2021/08/12 08:31:23;;;;;;;2.00;1.73;;;;;;;30.05;35.68;100371.13;5098618;28;20062;-51
2021/08/12 08:33:49;;;;;;;1.58;1.45;;;;;;;30.14;35.68;100369.41;5098924;28;20059;-51
2021/08/12 08:36:15;;;;;;;5.03;1.75;;;;;;;30.17;35.45;100366.38;5098027;28;20055;-51
2021/08/12 08:38:41;;;;;;;3.35;1.42;;;;;;;30.17;35.57;100365.53;5098504;28;20040;-51
2021/08/12 08:41:07;;;;;;;4.07;2.30;;;;;;;30.17;36.28;100358.28;5098492;28;20051;-52
2021/08/12 08:43:33;;;;;;;3.47;1.63;;;;;;;30.11;35.54;100374.25;5097864;28;20078;-51
2021/08/12 08:45:59;;;;;;;2.85;1.85;;;;;;;30.07;35.67;100379.09;5080898;28;20444;-51
2021/08/12 08:48:24;;;;;;;2.80;1.70;;;;;;;29.95;35.03;100378.44;5097652;28;20044;-52
2021/08/12 08:50:51;;;;;;;2.30;1.58;;;;;;;29.61;32.77;100377.31;5097482;28;20035;-51
2021/08/12 08:53:17;;;;;;;2.25;1.40;;;;;;;29.43;34.29;100382.59;5097387;28;20113;-51
2021/08/12 08:55:44;;;;;;;1.80;1.63;;;;;;;29.33;33.28;100386.16;5097310;28;20437;-52
2021/08/12 08:58:11;;;;;;;1.50;1.40;;;;;;;29.20;35.25;100380.22;5097117;28;20052;-51
2021/08/12 09:00:37;;;;;;;1.77;1.42;;;;;;;29.31;33.77;100385.47;5097542;28;20085;-51
2021/08/12 09:03:03;;;;;;;1.67;1.20;;;;;;;29.40;34.49;100385.59;5097482;28;20048;-51
2021/08/12 09:05:29;;;;;;;2.25;1.23;;;;;;;29.53;34.68;100384.25;5098302;28;20055;-51
2021/08/12 09:07:54;;;;;;;4.18;1.95;;;;;;;29.54;33.89;100377.00;5098213;28;20044;-52
2021/08/12 09:10:20;;;;;;;2.72;1.23;;;;;;;29.48;35.28;100385.72;5098190;28;20048;-51
2021/08/12 09:12:47;;;;;;;2.65;1.45;;;;;;;29.47;34.66;100386.69;5098143;28;20090;-51
2021/08/12 09:15:20;;;;;;;2.33;1.10;;;;;;;29.47;32.48;100382.16;5097812;28;20044;-51
2021/08/12 09:17:46;;;;;;;;;;;;;;;29.30;32.06;100391.84;5098470;28;20068;-52
2021/08/12 09:20:15;;;;;;;1.88;1.35;;;;;;;29.45;34.27;100377.91;5096776;28;19920;-51
2021/08/12 09:22:57;;;;;;;0.90;0.85;;;;;;;29.51;35.67;100383.56;5096807;28;20039;-52
2021/08/12 09:25:27;;;;;;;;;;;;;;;29.18;34.63;100387.59;5098391;28;20088;-51
2021/08/12 09:28:12;;;;;;;1.73;1.42;;;;;;;29.04;33.13;100385.38;5096988;28;19934;-52
2021/08/12 09:30:38;;;;;;;1.90;1.38;;;;;;;28.80;34.20;100375.84;5097545;28;20051;-51
2021/08/12 09:33:04;;;;;;;1.67;1.17;;;;;;;28.81;35.77;100382.09;5097725;28;20048;-51
2021/08/12 09:35:30;;;;;;;2.42;1.85;;;;;;;29.00;36.18;100390.19;5080002;28;20059;-51
2021/08/12 09:38:09;;;;;;;2.08;1.85;;;;;;;29.15;36.50;100385.19;5097284;28;20078;-51
2021/08/12 09:40:36;;;;;;;4.75;1.88;;;;;;;29.22;37.90;100377.41;5097662;28;20079;-51
2021/08/12 09:43:04;;;;;;;2.05;1.58;;;;;;;29.47;38.36;100384.84;5097599;28;20055;-51
2021/08/12 09:45:30;;;;;;;1.73;1.40;;;;;;;29.69;36.93;100380.97;5097547;28;20056;-51
2021/08/12 09:48:07;;;;;;;2.67;1.77;;;;;;;29.81;35.29;100371.69;5096523;28;20048;-51
2021/08/12 09:50:35;;;;;;;1.20;1.10;;;;;;;29.89;34.21;100362.84;5096705;28;20059;-51
2021/08/12 09:53:02;;;;;;;2.53;1.15;;;;;;;29.95;33.92;100369.50;5079864;28;20070;-51
2021/08/12 09:55:28;;;;;;;1.80;1.30;;;;;;;30.05;34.06;100364.91;5097347;28;20135;-50
2021/08/12 09:58:05;;;;;;;1.98;1.40;;;;;;;30.12;35.75;100373.25;5095951;28;20471;-51
2021/08/12 10:00:32;;;;;;;2.42;1.42;;;;;;;30.21;34.37;100364.25;5097112;28;20040;-51
2021/08/12 10:02:59;;;;;;;1.42;1.00;;;;;;;30.10;32.05;100373.41;5096074;28;20048;-51
2021/08/12 10:05:24;;;;;;;2.90;1.50;;;;;;;30.07;33.16;100373.69;5096023;28;20056;-51
2021/08/12 10:07:54;;;;;;;1.30;1.13;;;;;;;30.15;34.51;100368.38;5097171;28;20043;-51
2021/08/12 10:10:21;;;;;;;2.30;1.30;;;;;;;30.16;35.13;100362.00;5096767;28;20052;-51
2021/08/12 10:12:49;;;;;;;1.70;1.50;;;;;;;30.09;34.02;100363.59;5097367;28;20068;-51
2021/08/12 10:15:17;;;;;;;1.92;1.20;;;;;;;30.01;34.02;100375.16;5096686;28;20059;-51
2021/08/12 10:17:43;;;;;;;2.47;1.40;;;;;;;29.93;33.55;100363.38;5096666;28;20036;-51
2021/08/12 10:20:23;;;;;;;3.08;1.50;;;;;;;29.91;33.52;100362.72;5096076;28;20052;-51
2021/08/12 10:22:51;;;;;;;2.03;1.33;;;;;;;29.75;31.42;100361.50;5096935;28;20059;-51
2021/08/12 10:25:18;;;;;;;2.33;1.15;;;;;;;29.57;33.11;100368.63;5062346;28;20131;-51
2021/08/12 10:27:46;;;;;;;3.03;1.35;;;;;;;29.44;33.90;100368.94;5079126;28;20048;-50
2021/08/12 10:30:12;;;;;;;1.73;1.38;;;;;;;29.35;33.68;100378.78;5096444;28;20398;-51
2021/08/12 10:32:42;;;;;;;1.90;1.23;;;;;;;29.45;34.59;100367.97;5096743;28;20060;-51
2021/08/12 10:35:08;;;;;;;1.63;1.20;;;;;;;29.63;34.51;100368.06;5078725;28;20364;-51
2021/08/12 10:37:34;;;;;;;1.85;1.08;;;;;;;29.83;35.56;100359.88;5095721;28;20058;-51
2021/08/12 10:40:00;;;;;;;2.13;1.42;;;;;;;29.99;33.11;100366.34;5096381;28;20044;-50
2021/08/12 10:42:25;;;;;;;1.85;1.17;;;;;;;29.72;32.84;100374.44;5096284;28;20047;-51
2021/08/12 10:44:51;;;;;;;1.98;1.17;;;;;;;29.40;33.74;100372.94;5096100;28;20110;-51
2021/08/12 10:47:40;;;;;;;1.42;1.30;;;;;;;29.17;32.97;100372.44;5078573;28;20101;-51
2021/08/12 10:50:30;;;;;;;3.63;1.30;;;;;;;28.89;34.42;100364.22;5095359;28;20055;-50
2021/08/12 10:53:02;;;;;;;1.25;1.10;;;;;;;28.68;33.83;100355.41;5095411;28;20052;-51
2021/08/12 10:56:02;;;;;;;1.88;1.48;;;;;;;28.77;36.11;100354.56;5096493;28;20048;-51
2021/08/12 10:58:38;;;;;;;2.10;1.60;;;;;;;29.00;34.00;100355.16;5094817;28;20063;-51
2021/08/12 11:01:31;;;;;;;4.13;1.20;;;;;;;29.07;34.87;100352.72;5095631;28;20143;-51
2021/08/12 11:04:02;;;;;;;1.40;1.30;;;;;;;29.07;34.15;100352.72;5096985;28;20082;-51
2021/08/12 11:06:41;;;;;;;2.40;1.20;;;;;;;28.97;33.98;100350.00;5079893;28;20075;-51
2021/08/12 11:09:10;;;;;;;1.75;1.40;;;;;;;28.75;33.55;100347.63;5096402;28;20040;-51
2021/08/12 11:11:49;;;;;;;2.22;1.35;;;;;;;28.78;34.46;100347.34;5096031;28;20387;-51
2021/08/12 11:14:15;;;;;;;2.15;1.38;;;;;;;28.87;33.25;100344.63;5096298;28;20329;-50
2021/08/12 11:16:41;;;;;;;2.47;1.42;;;;;;;29.05;33.50;100350.16;5092969;28;20441;-51
2021/08/12 11:19:25;;;;;;;2.28;1.45;;;;;;;29.20;33.46;100345.19;5095934;28;20052;-51
2021/08/12 11:21:52;;;;;;;1.33;1.10;;;;;;;29.38;33.54;100344.41;5095958;28;20054;-51
2021/08/12 11:24:17;;;;;;;1.95;1.10;;;;;;;29.56;32.97;100338.09;5096068;28;20047;-51
2021/08/12 11:26:46;;;;;;;1.63;1.25;;;;;;;29.55;33.75;100347.19;5096177;28;20131;-51